createdAt,value
2022-10-20T00:02:07.132Z,25.20
2022-10-20T00:04:40.166Z,24.20
2022-10-20T00:07:13.626Z,18.50
2022-10-20T00:09:46.863Z,18.90
2022-10-20T00:12:19.843Z,15.20
2022-10-20T00:14:54.407Z,18.10
2022-10-20T00:17:27.904Z,17.90
2022-10-20T00:20:01.593Z,10.30
2022-10-20T00:22:36.525Z,9.80
2022-10-20T00:25:11.301Z,8.00
2022-10-20T00:27:44.584Z,9.00
2022-10-20T00:30:21.347Z,10.00
2022-10-20T00:32:57.286Z,12.30
2022-10-20T00:35:31.168Z,19.70
2022-10-20T00:38:04.572Z,14.20
2022-10-20T00:40:37.768Z,18.20
2022-10-20T00:43:14.130Z,16.10
2022-10-20T00:45:58.254Z,17.50
2022-10-20T00:48:33.670Z,17.70
2022-10-20T00:51:07.293Z,22.80
2022-10-20T00:53:40.542Z,20.30
2022-10-20T00:56:14.298Z,16.70
2022-10-20T00:58:48.256Z,17.60
2022-10-20T01:01:22.055Z,15.30
2022-10-20T01:03:55.928Z,13.20
2022-10-20T01:06:29.049Z,13.30
2022-10-20T01:09:03.092Z,8.10
2022-10-20T01:11:45.705Z,10.10
2022-10-20T01:14:35.706Z,10.10
2022-10-20T01:17:20.642Z,11.40
2022-10-20T01:20:29.015Z,15.10
2022-10-20T01:23:40.333Z,12.30
2022-10-20T01:26:38.577Z,10.70
2022-10-20T01:29:18.521Z,11.50
2022-10-20T01:31:59.301Z,14.10
2022-10-20T01:34:39.144Z,10.40
2022-10-20T01:37:28.419Z,13.60
2022-10-20T01:40:20.345Z,13.90
2022-10-20T01:42:56.746Z,15.40
2022-10-20T01:45:33.560Z,14.70
2022-10-20T01:48:11.040Z,17.10
2022-10-20T01:50:45.226Z,12.20
2022-10-20T01:53:18.420Z,12.30
2022-10-20T01:55:54.439Z,10.70
2022-10-20T01:59:00.027Z,11.50
2022-10-20T02:01:48.159Z,14.10
2022-10-20T02:04:30.572Z,11.70
2022-10-20T02:07:14.247Z,10.30
2022-10-20T02:09:50.626Z,12.60
2022-10-20T02:12:29.075Z,11.10
2022-10-20T02:15:04.249Z,10.20
2022-10-20T02:17:40.687Z,10.20
2022-10-20T02:20:15.049Z,10.60
2022-10-20T02:22:49.543Z,15.90
2022-10-20T02:25:23.756Z,10.10
2022-10-20T02:30:39.206Z,11.30
2022-10-20T02:33:13.285Z,13.90
2022-10-20T02:35:57.305Z,13.70
2022-10-20T02:38:30.803Z,13.80
2022-10-20T02:41:04.310Z,11.20
2022-10-20T02:43:38.107Z,12.30
2022-10-20T02:46:11.926Z,13.20
2022-10-20T02:48:45.748Z,10.60
2022-10-20T02:51:19.350Z,12.00
2022-10-20T02:53:55.132Z,13.20
2022-10-20T02:56:30.950Z,11.50
2022-10-20T02:59:04.803Z,10.20
2022-10-20T03:01:37.952Z,11.90
2022-10-20T03:04:11.704Z,11.80
2022-10-20T03:06:45.583Z,13.20
2022-10-20T03:09:18.642Z,12.10
2022-10-20T03:11:52.413Z,9.40
2022-10-20T03:14:25.849Z,12.70
2022-10-20T03:16:59.083Z,13.20
2022-10-20T03:19:32.480Z,11.30
2022-10-20T03:22:05.686Z,13.70
2022-10-20T03:24:39.193Z,13.40
2022-10-20T03:27:12.232Z,13.80
2022-10-20T03:29:45.630Z,12.00
2022-10-20T03:32:18.792Z,12.10
2022-10-20T03:34:52.017Z,13.20
2022-10-20T03:37:25.449Z,15.60
2022-10-20T03:39:58.737Z,12.60
2022-10-20T03:42:31.914Z,13.20
2022-10-20T03:45:05.450Z,12.80
2022-10-20T03:47:39.006Z,10.90
2022-10-20T03:50:12.903Z,15.50
2022-10-20T03:52:48.792Z,12.30
2022-10-20T03:55:22.298Z,13.30
2022-10-20T03:57:55.840Z,11.80
2022-10-20T04:00:29.272Z,13.60
2022-10-20T04:03:02.777Z,14.30
2022-10-20T04:05:35.839Z,14.90
2022-10-20T04:08:09.213Z,15.20
2022-10-20T04:10:42.561Z,20.50
2022-10-20T04:13:16.093Z,16.20
2022-10-20T04:15:49.800Z,16.20
2022-10-20T04:18:23.256Z,16.70
2022-10-20T04:20:56.364Z,14.20
2022-10-20T04:23:30.088Z,17.30
2022-10-20T04:26:08.649Z,14.00
2022-10-20T04:28:42.430Z,14.70
2022-10-20T04:31:16.195Z,16.20
2022-10-20T04:33:49.556Z,15.40
2022-10-20T04:36:23.042Z,15.90
2022-10-20T04:38:56.654Z,16.60
2022-10-20T04:41:30.253Z,15.50
2022-10-20T04:44:03.845Z,14.50
2022-10-20T04:46:37.293Z,16.90
2022-10-20T04:49:10.047Z,18.70
2022-10-20T04:51:43.476Z,19.50
2022-10-20T04:54:16.895Z,16.10
2022-10-20T04:56:50.492Z,17.70
2022-10-20T04:59:23.953Z,18.20
2022-10-20T05:01:57.647Z,13.40
2022-10-20T05:04:31.175Z,20.90
2022-10-20T05:07:04.471Z,17.40
2022-10-20T05:09:38.069Z,20.00
2022-10-20T05:12:11.224Z,17.70
2022-10-20T05:14:44.188Z,15.20
2022-10-20T05:17:17.453Z,18.80
2022-10-20T05:19:50.557Z,21.00
2022-10-20T05:22:24.266Z,22.10
2022-10-20T05:25:04.010Z,19.00
2022-10-20T05:27:46.663Z,20.40
2022-10-20T05:30:20.421Z,19.30
2022-10-20T05:32:53.708Z,23.50
2022-10-20T05:35:26.804Z,22.10
2022-10-20T05:37:59.856Z,26.80
2022-10-20T05:40:33.092Z,23.50
2022-10-20T05:43:06.061Z,22.90
2022-10-20T05:45:39.597Z,25.30
2022-10-20T05:48:13.599Z,28.90
2022-10-20T05:50:46.583Z,22.70
2022-10-20T05:53:20.071Z,24.40
2022-10-20T05:55:53.387Z,21.40
2022-10-20T05:58:27.123Z,20.90
2022-10-20T06:01:08.178Z,22.80
2022-10-20T06:03:41.602Z,20.40
2022-10-20T06:06:15.212Z,20.70
2022-10-20T06:08:49.065Z,20.80
2022-10-20T06:11:23.287Z,19.70
2022-10-20T06:13:58.006Z,21.60
2022-10-20T06:16:33.140Z,17.10
2022-10-20T06:19:07.538Z,22.90
2022-10-20T06:26:52.073Z,22.10
2022-10-20T06:29:25.358Z,22.90
2022-10-20T06:31:58.750Z,22.10
2022-10-20T06:34:32.702Z,19.30
2022-10-20T06:37:06.485Z,23.00
2022-10-20T06:39:40.169Z,21.30
2022-10-20T06:44:52.889Z,30.50
2022-10-20T06:47:26.894Z,31.50
2022-10-20T06:50:00.447Z,25.80
2022-10-20T06:52:34.561Z,27.00
2022-10-20T06:55:10.084Z,22.40
2022-10-20T06:57:44.083Z,24.50
2022-10-20T07:00:18.362Z,28.10
2022-10-20T07:02:52.127Z,23.70
2022-10-20T07:05:25.241Z,20.70
2022-10-20T07:07:58.573Z,20.50
2022-10-20T07:10:32.174Z,25.90
2022-10-20T07:13:05.607Z,30.00
2022-10-20T07:15:38.786Z,27.40
2022-10-20T07:18:12.025Z,25.50
2022-10-20T07:20:45.460Z,28.90
2022-10-20T07:23:18.723Z,29.50
2022-10-20T07:25:52.181Z,30.60
2022-10-20T07:28:25.878Z,27.40
2022-10-20T07:30:59.176Z,26.60
2022-10-20T07:33:32.721Z,27.10
2022-10-20T07:36:14.984Z,25.70
2022-10-20T07:38:48.832Z,31.80
2022-10-20T07:41:22.575Z,29.10
2022-10-20T07:43:57.129Z,28.20
2022-10-20T07:46:30.168Z,27.30
2022-10-20T07:49:38.293Z,28.90
2022-10-20T07:51:58.683Z,24.70
2022-10-20T07:54:32.264Z,24.80
2022-10-20T07:57:05.748Z,23.00
2022-10-20T07:59:38.891Z,24.50
2022-10-20T08:02:13.917Z,22.40
2022-10-20T08:04:47.610Z,25.00
2022-10-20T08:07:21.731Z,22.70
2022-10-20T08:09:55.302Z,21.80
2022-10-20T08:12:28.408Z,23.20
2022-10-20T08:17:52.171Z,22.80
2022-10-20T08:20:27.220Z,22.90
2022-10-20T08:23:00.632Z,21.30
2022-10-20T08:25:34.669Z,23.60
2022-10-20T08:28:08.431Z,22.70
2022-10-20T08:30:42.036Z,20.90
2022-10-20T08:33:15.799Z,25.40
2022-10-20T08:35:49.121Z,26.10
2022-10-20T08:38:22.639Z,26.80
2022-10-20T08:40:56.016Z,26.70
2022-10-20T08:43:31.038Z,18.70
2022-10-20T08:46:04.225Z,25.00
2022-10-20T08:48:38.103Z,28.00
2022-10-20T08:51:20.485Z,23.90
2022-10-20T08:53:57.116Z,26.40
2022-10-20T08:56:32.399Z,25.40
2022-10-20T08:59:06.422Z,20.90
2022-10-20T09:01:40.591Z,21.20
2022-10-20T09:04:22.182Z,20.40
2022-10-20T09:07:01.490Z,18.90
2022-10-20T09:09:35.721Z,16.40
2022-10-20T09:12:13.899Z,16.10
2022-10-20T09:14:47.406Z,14.70
2022-10-20T09:17:21.282Z,15.80
2022-10-20T09:20:00.007Z,15.40
2022-10-20T09:25:14.969Z,13.60
2022-10-20T09:27:49.128Z,13.80
2022-10-20T09:30:24.547Z,18.40
2022-10-20T09:32:58.808Z,17.90
2022-10-20T09:35:35.641Z,18.70
2022-10-20T09:38:22.981Z,17.70
2022-10-20T09:41:07.465Z,15.00
2022-10-20T09:43:42.736Z,14.60
2022-10-20T09:46:21.059Z,10.10
2022-10-20T09:48:56.342Z,12.30
2022-10-20T09:51:31.222Z,13.10
2022-10-20T09:54:07.733Z,10.10
2022-10-20T09:56:43.537Z,11.50
2022-10-20T09:59:26.993Z,11.40
2022-10-20T10:02:02.645Z,14.90
2022-10-20T10:04:38.584Z,16.70
2022-10-20T10:07:33.230Z,13.70
2022-10-20T10:10:09.889Z,11.10
2022-10-20T10:12:53.361Z,7.80
2022-10-20T10:15:32.968Z,7.30
2022-10-20T10:18:16.320Z,7.70
2022-10-20T10:20:49.681Z,5.20
2022-10-20T10:23:28.524Z,6.10
2022-10-20T10:28:39.222Z,4.80
2022-10-20T10:31:27.047Z,7.00
2022-10-20T10:34:29.054Z,8.50
2022-10-20T10:37:02.609Z,6.70
2022-10-20T10:39:38.089Z,7.20
2022-10-20T10:42:40.709Z,4.40
2022-10-20T10:45:29.140Z,5.90
2022-10-20T10:48:25.059Z,5.70
2022-10-20T10:51:01.680Z,3.20
2022-10-20T10:53:52.094Z,4.80
2022-10-20T10:56:35.125Z,2.30
2022-10-20T10:59:13.063Z,2.00
2022-10-20T11:02:18.689Z,2.50
2022-10-20T11:05:22.659Z,1.90
2022-10-20T11:08:05.304Z,5.40
2022-10-20T11:10:48.095Z,3.90
2022-10-20T11:13:31.550Z,5.50
2022-10-20T11:16:15.840Z,4.50
2022-10-20T11:19:18.467Z,3.10
2022-10-20T11:22:02.631Z,4.90
2022-10-20T11:24:47.793Z,2.30
2022-10-20T11:27:26.483Z,2.50
2022-10-20T11:30:05.945Z,3.90
2022-10-20T11:32:42.661Z,1.60
2022-10-20T11:35:30.623Z,3.70
2022-10-20T11:38:17.613Z,2.60
2022-10-20T11:40:56.682Z,2.20
2022-10-20T11:43:36.622Z,6.20
2022-10-20T11:46:13.182Z,3.70
2022-10-20T11:48:50.810Z,5.40
2022-10-20T11:51:56.800Z,3.20
2022-10-20T11:54:47.444Z,3.60
2022-10-20T11:57:27.209Z,4.90
2022-10-20T12:03:39.424Z,3.80
2022-10-20T12:06:44.191Z,4.10
2022-10-20T12:09:44.604Z,5.30
2022-10-20T12:12:22.988Z,2.60
2022-10-20T12:15:01.134Z,3.80
2022-10-20T12:17:43.643Z,3.60
2022-10-20T12:21:03.419Z,4.30
2022-10-20T12:24:06.092Z,4.20
2022-10-20T12:27:12.238Z,3.40
2022-10-20T12:30:31.454Z,3.70
2022-10-20T12:33:20.973Z,2.70
2022-10-20T12:36:15.671Z,3.00
2022-10-20T12:38:52.336Z,4.70
2022-10-20T12:41:34.269Z,4.60
2022-10-20T12:44:15.384Z,5.00
2022-10-20T12:46:57.484Z,4.30
2022-10-20T12:49:36.375Z,2.50
2022-10-20T12:52:18.901Z,2.70
2022-10-20T12:55:00.414Z,2.70
2022-10-20T12:57:42.141Z,5.30
2022-10-20T13:00:46.280Z,5.40
2022-10-20T13:03:44.578Z,3.10
2022-10-20T13:06:46.704Z,2.70
2022-10-20T13:09:25.301Z,4.40
2022-10-20T13:14:57.446Z,8.80
2022-10-20T13:17:39.416Z,5.10
2022-10-20T13:20:29.362Z,5.70
2022-10-20T13:23:03.904Z,4.30
2022-10-20T13:25:41.554Z,4.10
2022-10-20T13:28:23.698Z,5.10
2022-10-20T13:31:24.080Z,5.80
2022-10-20T13:34:06.986Z,5.30
2022-10-20T13:36:55.950Z,4.30
2022-10-20T13:39:39.457Z,7.00
2022-10-20T13:42:26.867Z,4.80
2022-10-20T13:45:09.328Z,5.10
2022-10-20T13:47:56.590Z,3.70
2022-10-20T13:50:35.116Z,4.60
2022-10-20T13:53:21.046Z,3.40
2022-10-20T13:56:05.718Z,3.00
2022-10-20T13:58:39.344Z,3.50
2022-10-20T14:01:23.733Z,4.20
2022-10-20T14:03:57.851Z,3.00
2022-10-20T14:06:36.905Z,4.00
2022-10-20T14:09:17.306Z,5.30
2022-10-20T14:11:53.767Z,11.40
2022-10-20T14:14:29.053Z,5.90
2022-10-20T14:17:04.903Z,6.50
2022-10-20T14:19:41.302Z,5.50
2022-10-20T14:22:22.738Z,5.90
2022-10-20T14:24:59.968Z,4.20
2022-10-20T14:27:38.430Z,4.60
2022-10-20T14:30:18.494Z,5.50
2022-10-20T14:32:53.213Z,4.60
2022-10-20T14:35:34.324Z,3.70
2022-10-20T14:38:17.539Z,4.00
2022-10-20T14:40:56.010Z,4.80
2022-10-20T14:43:39.382Z,11.00
2022-10-20T14:46:15.654Z,5.90
2022-10-20T14:48:52.207Z,5.00
2022-10-20T14:51:45.457Z,4.40
2022-10-20T14:54:26.909Z,4.90
2022-10-20T14:57:01.760Z,6.40
2022-10-20T14:59:39.019Z,3.10
2022-10-20T15:02:19.279Z,23.90
2022-10-20T15:04:53.580Z,31.50
2022-10-20T15:07:30.723Z,16.90
2022-10-20T15:10:11.502Z,6.30
2022-10-20T15:12:48.405Z,7.30
2022-10-20T15:15:27.445Z,5.50
2022-10-20T15:18:16.943Z,6.40
2022-10-20T15:20:51.200Z,7.80
2022-10-20T15:23:26.029Z,5.50
2022-10-20T15:26:04.854Z,5.70
2022-10-20T15:28:45.587Z,5.40
2022-10-20T15:31:24.742Z,6.30
2022-10-20T15:34:00.016Z,6.50
2022-10-20T15:36:41.709Z,5.30
2022-10-20T15:39:16.306Z,6.70
2022-10-20T15:41:53.016Z,4.90
2022-10-20T15:44:28.540Z,8.20
2022-10-20T15:47:01.656Z,8.10
2022-10-20T15:49:35.535Z,6.60
2022-10-20T15:52:09.691Z,5.50
2022-10-20T15:54:42.673Z,8.80
2022-10-20T15:57:16.618Z,8.80
2022-10-20T15:59:49.996Z,6.80
2022-10-20T16:02:24.939Z,7.40
2022-10-20T16:04:57.752Z,6.80
2022-10-20T16:07:31.125Z,7.00
2022-10-20T16:10:05.101Z,7.90
2022-10-20T16:12:40.120Z,8.40
2022-10-20T16:15:14.400Z,8.40
2022-10-20T16:20:23.673Z,8.90
2022-10-20T16:22:56.775Z,11.20
2022-10-20T16:25:30.305Z,8.10
2022-10-20T16:28:04.164Z,11.30
2022-10-20T16:30:37.478Z,234.10
2022-10-20T16:33:11.161Z,251.00
2022-10-20T16:35:45.785Z,43.90
2022-10-20T16:38:19.016Z,21.30
2022-10-20T16:41:01.858Z,16.80
2022-10-20T16:43:38.294Z,12.40
2022-10-20T16:46:13.989Z,12.70
2022-10-20T16:48:48.482Z,8.30
2022-10-20T16:51:22.088Z,11.20
2022-10-20T16:54:00.793Z,12.70
2022-10-20T16:56:37.110Z,25.70
2022-10-20T16:59:10.269Z,15.90
2022-10-20T17:01:43.683Z,14.80
2022-10-20T17:04:18.381Z,12.70
2022-10-20T17:06:52.029Z,17.90
2022-10-20T17:09:26.250Z,19.90
2022-10-20T17:11:59.823Z,16.80
2022-10-20T17:14:34.153Z,19.10
2022-10-20T17:17:07.119Z,13.80
2022-10-20T17:19:43.865Z,14.80
2022-10-20T17:22:17.678Z,15.30
2022-10-20T17:24:54.348Z,15.30
2022-10-20T17:27:29.458Z,12.70
2022-10-20T17:30:03.816Z,16.00
2022-10-20T17:32:38.689Z,20.70
2022-10-20T17:35:15.421Z,22.20
2022-10-20T17:37:50.135Z,22.40
2022-10-20T17:40:25.133Z,25.20
2022-10-20T17:43:03.451Z,22.10
2022-10-20T17:45:38.784Z,25.50
2022-10-20T17:48:14.214Z,25.70
2022-10-20T17:50:48.549Z,28.70
2022-10-20T17:53:24.553Z,24.60
2022-10-20T17:56:02.307Z,20.60
2022-10-20T17:58:37.424Z,20.90
2022-10-20T18:01:16.207Z,19.10
2022-10-20T18:03:55.307Z,20.60
2022-10-20T18:06:36.247Z,19.70
2022-10-20T18:09:12.916Z,20.90
2022-10-20T18:11:49.049Z,18.50
2022-10-20T18:14:23.622Z,21.10
2022-10-20T18:16:58.250Z,19.20
2022-10-20T18:19:35.029Z,19.40
2022-10-20T18:22:12.503Z,20.40
2022-10-20T18:24:48.297Z,21.40
2022-10-20T18:27:24.254Z,18.20
2022-10-20T18:29:58.497Z,20.60
2022-10-20T18:32:33.015Z,18.00
2022-10-20T18:35:08.470Z,22.10
2022-10-20T18:37:42.821Z,17.50
2022-10-20T18:40:17.589Z,22.10
2022-10-20T18:42:51.985Z,19.90
2022-10-20T18:45:27.295Z,20.60
2022-10-20T18:48:02.661Z,19.10
2022-10-20T18:50:36.576Z,17.40
2022-10-20T18:53:11.138Z,17.20
2022-10-20T18:55:46.097Z,16.60
2022-10-20T18:58:22.499Z,20.80
2022-10-20T19:01:04.241Z,21.10
2022-10-20T19:03:39.016Z,21.40
2022-10-20T19:06:15.201Z,19.30
2022-10-20T19:08:53.567Z,20.80
2022-10-20T19:11:29.982Z,17.90
2022-10-20T19:14:05.782Z,16.90
2022-10-20T19:16:41.699Z,16.80
2022-10-20T19:19:16.860Z,22.40
2022-10-20T19:21:51.946Z,20.50
2022-10-20T19:24:28.101Z,17.00
2022-10-20T19:30:02.203Z,17.10
2022-10-20T19:32:41.595Z,19.30
2022-10-20T19:35:17.504Z,18.90
2022-10-20T19:37:51.364Z,18.10
2022-10-20T19:40:29.384Z,18.10
2022-10-20T19:43:04.212Z,18.00
2022-10-20T19:45:38.679Z,18.90
2022-10-20T19:48:14.854Z,19.60
2022-10-20T19:50:49.779Z,20.80
2022-10-20T19:53:24.429Z,21.80
2022-10-20T19:55:58.505Z,17.60
2022-10-20T19:58:32.874Z,21.40
2022-10-20T20:01:07.150Z,18.40
2022-10-20T20:03:41.473Z,18.80
2022-10-20T20:06:17.728Z,19.00
2022-10-20T20:08:54.826Z,20.20
2022-10-20T20:11:33.193Z,21.30
2022-10-20T20:14:10.054Z,21.90
2022-10-20T20:16:47.125Z,18.80
2022-10-20T20:19:22.276Z,20.20
2022-10-20T20:21:57.387Z,20.40
2022-10-20T20:24:31.761Z,23.50
2022-10-20T20:27:05.142Z,22.60
2022-10-20T20:29:38.232Z,20.50
2022-10-20T20:32:12.168Z,24.50
2022-10-20T20:34:45.658Z,23.20
2022-10-20T20:37:19.454Z,28.90
2022-10-20T20:39:53.474Z,25.90
2022-10-20T20:42:26.769Z,27.70
2022-10-20T20:45:00.153Z,24.20
2022-10-20T20:47:36.016Z,26.40
2022-10-20T20:50:11.698Z,21.80
2022-10-20T20:52:46.380Z,21.20
2022-10-20T20:55:19.827Z,21.10
2022-10-20T20:57:52.955Z,18.20
2022-10-20T21:00:26.404Z,19.30
2022-10-20T21:02:59.903Z,20.30
2022-10-20T21:05:33.230Z,20.00
2022-10-20T21:08:06.981Z,20.00
2022-10-20T21:10:40.656Z,18.20
2022-10-20T21:13:13.845Z,16.60
2022-10-20T21:15:47.211Z,18.70
2022-10-20T21:18:20.557Z,16.50
2022-10-20T21:20:53.637Z,17.00
2022-10-20T21:23:26.985Z,17.40
2022-10-20T21:26:00.255Z,15.60
2022-10-20T21:28:33.859Z,15.20
2022-10-20T21:31:09.841Z,15.60
2022-10-20T21:33:43.851Z,17.00
2022-10-20T21:36:19.613Z,18.30
2022-10-20T21:38:53.329Z,19.70
2022-10-20T21:41:29.333Z,19.10
2022-10-20T21:44:04.917Z,21.80
2022-10-20T21:46:42.271Z,19.10
2022-10-20T21:49:17.474Z,22.40
2022-10-20T21:51:52.909Z,17.80
2022-10-20T21:54:27.768Z,21.60
2022-10-20T21:57:01.312Z,21.30
2022-10-20T21:59:34.975Z,23.80
2022-10-20T22:02:13.873Z,26.20
2022-10-20T22:04:47.728Z,23.00
2022-10-20T22:07:20.955Z,22.00
2022-10-20T22:09:54.587Z,25.30
2022-10-20T22:12:28.061Z,23.90
2022-10-20T22:15:01.346Z,22.20
2022-10-20T22:17:35.357Z,23.10
2022-10-20T22:20:11.342Z,22.30
2022-10-20T22:22:44.671Z,20.80
2022-10-20T22:25:18.023Z,21.90
2022-10-20T22:27:51.983Z,22.20
2022-10-20T22:30:25.543Z,25.40
2022-10-20T22:32:59.130Z,25.40
2022-10-20T22:35:32.584Z,29.20
2022-10-20T22:38:05.904Z,22.60
2022-10-20T22:40:39.823Z,21.50
2022-10-20T22:43:13.239Z,27.00
2022-10-20T22:45:47.101Z,27.50
2022-10-20T22:48:20.483Z,24.80
2022-10-20T22:50:53.819Z,26.80
2022-10-20T22:53:27.544Z,25.20
2022-10-20T22:56:08.297Z,20.80
2022-10-20T22:58:42.247Z,24.00
2022-10-20T23:01:17.514Z,28.60
2022-10-20T23:03:51.036Z,25.50
2022-10-20T23:06:25.555Z,26.90
2022-10-20T23:09:00.107Z,25.80
2022-10-20T23:11:33.654Z,24.80
2022-10-20T23:14:07.344Z,26.10
2022-10-20T23:16:40.618Z,25.10
2022-10-20T23:19:14.555Z,23.50
2022-10-20T23:21:48.238Z,24.00
2022-10-20T23:24:21.972Z,24.40
2022-10-20T23:26:55.886Z,24.50
2022-10-20T23:29:29.331Z,23.20
2022-10-20T23:32:02.863Z,24.00
2022-10-20T23:34:36.211Z,24.20
2022-10-20T23:37:09.837Z,25.60
2022-10-20T23:39:43.032Z,26.50
2022-10-20T23:42:16.260Z,25.90
2022-10-20T23:44:49.899Z,22.40
2022-10-20T23:47:23.492Z,23.70
2022-10-20T23:49:57.133Z,24.50
2022-10-20T23:52:30.337Z,20.90
2022-10-20T23:55:03.617Z,23.80
2022-10-20T23:57:36.886Z,24.80
